createdAt,value
2023-01-21T00:00:51.574Z,3.70
2023-01-21T00:03:18.387Z,3.60
2023-01-21T00:05:45.108Z,2.22
2023-01-21T00:08:11.879Z,1.17
2023-01-21T00:10:38.634Z,2.05
2023-01-21T00:13:05.470Z,4.22
2023-01-21T00:15:32.219Z,1.85
2023-01-21T00:17:58.961Z,3.38
2023-01-21T00:20:25.665Z,4.53
2023-01-21T00:22:52.572Z,1.35
2023-01-21T00:25:19.619Z,4.15
2023-01-21T00:27:46.402Z,3.22
2023-01-21T00:30:13.390Z,2.10
2023-01-21T00:32:40.266Z,1.67
2023-01-21T00:35:07.618Z,1.95
2023-01-21T00:37:34.395Z,3.13
2023-01-21T00:40:01.078Z,1.45
2023-01-21T00:42:27.814Z,4.45
2023-01-21T00:44:54.949Z,1.35
2023-01-21T00:47:21.723Z,5.63
2023-01-21T00:49:48.438Z,2.25
2023-01-21T00:52:15.359Z,5.80
2023-01-21T00:54:45.964Z,2.35
2023-01-21T00:57:15.364Z,10.25
2023-01-21T00:59:42.191Z,9.25
2023-01-21T01:02:09.297Z,5.88
2023-01-21T01:04:36.040Z,1.73
2023-01-21T01:07:02.778Z,3.88
2023-01-21T01:09:29.644Z,5.55
2023-01-21T01:11:56.385Z,5.57
2023-01-21T01:14:23.179Z,2.63
2023-01-21T01:16:50.119Z,3.72
2023-01-21T01:19:16.956Z,2.63
2023-01-21T01:21:43.695Z,2.22
2023-01-21T01:24:10.454Z,2.53
2023-01-21T01:26:37.270Z,1.08
2023-01-21T01:29:04.735Z,1.23
2023-01-21T01:31:31.643Z,1.20
2023-01-21T01:33:58.543Z,1.75
2023-01-21T01:36:25.351Z,1.42
2023-01-21T01:38:52.459Z,0.88
2023-01-21T01:41:22.725Z,1.13
2023-01-21T01:43:59.401Z,1.75
2023-01-21T01:46:30.887Z,1.08
2023-01-21T01:49:08.767Z,1.58
2023-01-21T01:51:48.661Z,1.10
2023-01-21T01:54:18.213Z,1.60
2023-01-21T01:56:46.004Z,0.73
2023-01-21T01:59:12.773Z,0.73
2023-01-21T02:01:39.658Z,1.10
2023-01-21T02:04:07.843Z,0.95
2023-01-21T02:06:34.742Z,1.67
2023-01-21T02:09:01.517Z,1.08
2023-01-21T02:11:28.308Z,1.48
2023-01-21T02:13:56.807Z,1.33
2023-01-21T02:16:35.076Z,1.25
2023-01-21T02:19:24.854Z,2.17
2023-01-21T02:22:16.180Z,1.42
2023-01-21T02:24:52.011Z,1.20
2023-01-21T02:27:31.557Z,2.33
2023-01-21T02:30:31.949Z,1.13
2023-01-21T02:33:04.871Z,3.47
2023-01-21T02:38:04.565Z,1.98
2023-01-21T02:40:56.042Z,1.92
2023-01-21T02:43:56.556Z,1.20
2023-01-21T02:46:37.524Z,0.90
2023-01-21T02:49:09.905Z,2.15
2023-01-21T02:51:36.628Z,1.30
2023-01-21T02:54:36.177Z,2.67
2023-01-21T02:57:03.046Z,1.10
2023-01-21T02:59:29.825Z,1.67
2023-01-21T03:02:15.145Z,2.30
2023-01-21T03:04:42.013Z,1.10
2023-01-21T03:07:43.514Z,1.42
2023-01-21T03:10:13.785Z,0.80
2023-01-21T03:12:49.574Z,1.00
2023-01-21T03:15:18.009Z,1.42
2023-01-21T03:18:05.074Z,1.48
2023-01-21T03:20:49.316Z,0.85
2023-01-21T03:23:22.368Z,1.42
2023-01-21T03:25:49.036Z,1.15
2023-01-21T03:28:21.289Z,1.55
2023-01-21T03:30:51.794Z,1.48
2023-01-21T03:33:18.676Z,0.98
2023-01-21T03:35:45.854Z,2.00
2023-01-21T03:38:18.081Z,2.20
2023-01-21T03:40:49.429Z,1.35
2023-01-21T03:43:23.259Z,1.70
2023-01-21T03:46:17.205Z,1.70
2023-01-21T03:48:50.666Z,1.83
2023-01-21T03:51:19.891Z,1.75
2023-01-21T03:53:48.985Z,1.10
2023-01-21T03:56:15.700Z,1.33
2023-01-21T03:58:42.588Z,1.73
2023-01-21T04:01:09.358Z,1.63
2023-01-21T04:03:36.179Z,1.20
2023-01-21T04:06:02.864Z,2.63
2023-01-21T04:08:29.766Z,1.88
2023-01-21T04:10:56.532Z,1.00
2023-01-21T04:13:23.230Z,1.35
2023-01-21T04:15:50.004Z,1.08
2023-01-21T04:18:16.750Z,1.00
2023-01-21T04:20:46.081Z,1.15
2023-01-21T04:23:12.889Z,1.85
2023-01-21T04:25:39.637Z,2.45
2023-01-21T04:28:06.319Z,0.98
2023-01-21T04:30:36.014Z,1.45
2023-01-21T04:33:03.001Z,2.22
2023-01-21T04:35:29.740Z,1.27
2023-01-21T04:37:56.525Z,1.20
2023-01-21T04:40:23.526Z,1.63
2023-01-21T04:42:50.285Z,1.65
2023-01-21T04:45:17.076Z,1.30
2023-01-21T04:47:45.040Z,1.27
2023-01-21T04:50:13.070Z,2.05
2023-01-21T04:52:40.178Z,1.38
2023-01-21T04:55:07.601Z,2.85
2023-01-21T04:57:34.423Z,1.10
2023-01-21T05:00:01.121Z,0.90
2023-01-21T05:02:27.872Z,1.42
2023-01-21T05:04:54.600Z,1.27
2023-01-21T05:07:21.838Z,1.30
2023-01-21T05:09:48.637Z,2.13
2023-01-21T05:12:15.332Z,1.45
2023-01-21T05:14:42.126Z,2.30
2023-01-21T05:17:08.958Z,1.83
2023-01-21T05:19:35.664Z,1.95
2023-01-21T05:22:02.356Z,1.45
2023-01-21T05:24:29.101Z,2.10
2023-01-21T05:26:55.828Z,1.50
2023-01-21T05:29:22.504Z,2.28
2023-01-21T05:31:49.319Z,1.92
2023-01-21T05:34:16.077Z,1.33
2023-01-21T05:36:42.791Z,1.95
2023-01-21T05:39:09.504Z,1.58
2023-01-21T05:41:36.192Z,1.70
2023-01-21T05:44:02.886Z,1.98
2023-01-21T05:46:29.651Z,1.73
2023-01-21T05:48:56.347Z,3.63
2023-01-21T05:51:23.073Z,1.85
2023-01-21T05:53:49.801Z,3.58
2023-01-21T05:56:16.470Z,2.38
2023-01-21T05:58:43.160Z,2.20
2023-01-21T06:01:10.172Z,2.00
2023-01-21T06:03:36.922Z,3.03
2023-01-21T06:06:04.013Z,1.92
2023-01-21T06:08:30.681Z,2.92
2023-01-21T06:10:57.385Z,2.13
2023-01-21T06:13:24.265Z,3.08
2023-01-21T06:15:53.609Z,2.35
2023-01-21T06:18:20.316Z,3.10
2023-01-21T06:20:47.014Z,2.80
2023-01-21T06:23:13.700Z,2.50
2023-01-21T06:25:40.424Z,4.25
2023-01-21T06:28:07.285Z,2.90
2023-01-21T06:30:33.995Z,3.60
2023-01-21T06:33:00.679Z,3.25
2023-01-21T06:35:27.367Z,2.92
2023-01-21T06:37:54.066Z,2.90
2023-01-21T06:40:20.816Z,3.25
2023-01-21T06:42:48.141Z,1.75
2023-01-21T06:45:15.375Z,3.05
2023-01-21T06:47:42.992Z,2.03
2023-01-21T06:50:19.103Z,2.17
2023-01-21T06:52:48.467Z,2.38
2023-01-21T06:55:15.443Z,2.83
2023-01-21T06:57:42.787Z,4.60
2023-01-21T07:00:13.939Z,3.38
2023-01-21T07:02:40.855Z,3.05
2023-01-21T07:05:07.974Z,2.15
2023-01-21T07:07:34.706Z,4.18
2023-01-21T07:10:01.445Z,3.47
2023-01-21T07:12:28.146Z,2.47
2023-01-21T07:14:54.844Z,3.30
2023-01-21T07:17:21.563Z,3.33
2023-01-21T07:19:48.271Z,5.68
2023-01-21T07:22:14.979Z,3.88
2023-01-21T07:24:41.678Z,2.78
2023-01-21T07:27:08.576Z,3.58
2023-01-21T07:29:35.291Z,2.45
2023-01-21T07:32:02.017Z,4.88
2023-01-21T07:34:28.751Z,3.05
2023-01-21T07:36:55.439Z,3.80
2023-01-21T07:39:22.199Z,3.88
2023-01-21T07:41:48.925Z,3.17
2023-01-21T07:44:15.650Z,3.67
2023-01-21T07:46:42.432Z,4.15
2023-01-21T07:49:09.125Z,3.60
2023-01-21T07:51:35.811Z,4.57
2023-01-21T07:54:02.521Z,4.20
2023-01-21T07:56:29.255Z,4.15
2023-01-21T07:58:55.949Z,4.05
2023-01-21T08:01:25.235Z,3.72
2023-01-21T08:03:52.140Z,3.83
2023-01-21T08:06:18.847Z,3.72
2023-01-21T08:08:45.543Z,3.70
2023-01-21T08:11:12.260Z,3.53
2023-01-21T08:13:38.994Z,3.88
2023-01-21T08:16:06.324Z,4.60
2023-01-21T08:18:33.021Z,4.28
2023-01-21T08:20:59.798Z,4.65
2023-01-21T08:23:26.539Z,4.90
2023-01-21T08:25:53.568Z,4.95
2023-01-21T08:28:20.525Z,3.20
2023-01-21T08:30:47.273Z,5.15
2023-01-21T08:33:14.259Z,5.45
2023-01-21T08:35:41.032Z,5.85
2023-01-21T08:38:07.754Z,5.75
2023-01-21T08:40:34.530Z,5.03
2023-01-21T08:43:01.882Z,6.55
2023-01-21T08:45:28.740Z,4.57
2023-01-21T08:47:55.594Z,5.43
2023-01-21T08:50:23.136Z,4.45
2023-01-21T08:52:53.666Z,5.25
2023-01-21T08:55:21.863Z,4.18
2023-01-21T08:57:48.617Z,5.07
2023-01-21T09:00:15.693Z,6.07
2023-01-21T09:02:42.360Z,4.82
2023-01-21T09:05:09.404Z,5.28
2023-01-21T09:07:36.364Z,4.88
2023-01-21T09:10:04.338Z,4.00
2023-01-21T09:12:31.197Z,3.95
2023-01-21T09:14:58.065Z,6.10
2023-01-21T09:17:24.776Z,4.43
2023-01-21T09:19:51.503Z,5.05
2023-01-21T09:22:18.349Z,4.70
2023-01-21T09:24:45.073Z,5.10
2023-01-21T09:27:12.207Z,5.72
2023-01-21T09:29:38.987Z,5.68
2023-01-21T09:32:05.738Z,6.20
2023-01-21T09:34:35.710Z,5.22
2023-01-21T09:37:02.872Z,4.72
2023-01-21T09:39:29.574Z,5.03
2023-01-21T09:41:56.876Z,5.30
2023-01-21T09:44:36.436Z,6.00
2023-01-21T09:47:33.887Z,6.00
2023-01-21T09:50:14.671Z,6.35
2023-01-21T09:52:45.092Z,4.63
2023-01-21T09:55:18.598Z,6.22
2023-01-21T09:58:19.863Z,8.30
2023-01-21T10:00:55.489Z,5.20
2023-01-21T10:03:44.530Z,5.63
2023-01-21T10:06:22.417Z,5.07
2023-01-21T10:09:15.024Z,4.88
2023-01-21T10:12:03.829Z,5.05
2023-01-21T10:14:55.405Z,6.25
2023-01-21T10:17:33.698Z,4.78
2023-01-21T10:20:21.547Z,4.35
2023-01-21T10:23:34.081Z,6.30
2023-01-21T10:26:03.966Z,4.88
2023-01-21T10:28:30.734Z,6.88
2023-01-21T10:31:11.294Z,4.68
2023-01-21T10:33:38.065Z,4.72
2023-01-21T10:36:16.745Z,5.75
2023-01-21T10:39:01.190Z,5.75
2023-01-21T10:41:42.916Z,5.53
2023-01-21T10:44:18.364Z,6.28
2023-01-21T10:47:11.647Z,4.97
2023-01-21T10:52:11.653Z,6.40
2023-01-21T10:54:51.255Z,6.55
2023-01-21T10:57:33.728Z,8.30
2023-01-21T11:00:00.819Z,6.15
2023-01-21T11:02:32.307Z,5.57
2023-01-21T11:05:01.097Z,5.65
2023-01-21T11:07:29.237Z,6.45
2023-01-21T11:09:55.943Z,5.10
2023-01-21T11:12:22.644Z,6.85
2023-01-21T11:14:53.974Z,5.93
2023-01-21T11:17:51.046Z,6.15
2023-01-21T11:20:21.880Z,5.32
2023-01-21T11:22:48.802Z,7.90
2023-01-21T11:25:35.777Z,8.93
2023-01-21T11:28:03.443Z,7.47
2023-01-21T11:30:50.076Z,6.78
2023-01-21T11:33:26.872Z,6.35
2023-01-21T11:35:54.002Z,6.50
2023-01-21T11:38:24.132Z,6.10
2023-01-21T11:41:21.055Z,6.60
2023-01-21T11:43:52.725Z,4.80
2023-01-21T11:46:27.709Z,7.83
2023-01-21T11:49:05.867Z,5.15
2023-01-21T11:51:42.064Z,6.35
2023-01-21T11:54:14.772Z,7.95
2023-01-21T11:56:42.467Z,6.25
2023-01-21T11:59:31.649Z,5.75
2023-01-21T12:02:24.725Z,4.95
2023-01-21T12:05:03.347Z,7.97
2023-01-21T12:07:32.355Z,6.32
2023-01-21T12:10:08.536Z,7.35
2023-01-21T12:12:51.231Z,3.40
2023-01-21T12:15:37.522Z,5.43
2023-01-21T12:18:42.708Z,6.00
2023-01-21T12:21:21.209Z,4.97
2023-01-21T12:24:19.899Z,6.03
2023-01-21T12:27:09.482Z,6.22
2023-01-21T12:29:38.959Z,4.50
2023-01-21T12:32:18.384Z,6.30
2023-01-21T12:34:48.139Z,4.68
2023-01-21T12:37:29.476Z,8.52
2023-01-21T12:39:56.928Z,8.02
2023-01-21T12:42:26.026Z,6.25
2023-01-21T12:45:13.825Z,6.28
2023-01-21T12:47:48.300Z,6.15
2023-01-21T12:50:28.407Z,5.03
2023-01-21T12:53:04.387Z,6.68
2023-01-21T12:55:58.021Z,6.45
2023-01-21T12:58:25.915Z,7.25
2023-01-21T13:00:52.769Z,5.15
2023-01-21T13:03:58.619Z,5.45
2023-01-21T13:06:53.689Z,5.70
2023-01-21T13:09:39.687Z,6.72
2023-01-21T13:12:28.000Z,6.05
2023-01-21T13:15:03.230Z,4.60
2023-01-21T13:17:32.770Z,5.90
2023-01-21T13:19:59.515Z,9.38
2023-01-21T13:22:46.912Z,4.90
2023-01-21T13:25:28.242Z,7.45
2023-01-21T13:27:58.310Z,5.45
2023-01-21T13:30:35.457Z,10.23
2023-01-21T13:33:40.034Z,4.43
2023-01-21T13:36:24.730Z,3.92
2023-01-21T13:39:00.031Z,4.13
2023-01-21T13:41:26.747Z,7.90
2023-01-21T13:44:22.297Z,5.75
2023-01-21T13:46:56.317Z,5.90
2023-01-21T13:49:41.760Z,4.90
2023-01-21T13:52:13.150Z,5.18
2023-01-21T13:55:09.434Z,6.05
2023-01-21T13:58:03.070Z,7.05
2023-01-21T14:01:15.187Z,4.25
2023-01-21T14:03:45.401Z,3.58
2023-01-21T14:06:36.455Z,6.60
2023-01-21T14:09:29.592Z,4.95
2023-01-21T14:12:23.266Z,3.75
2023-01-21T14:14:53.901Z,4.07
2023-01-21T14:17:28.315Z,3.83
2023-01-21T14:20:04.222Z,4.15
2023-01-21T14:23:12.389Z,3.90
2023-01-21T14:25:47.970Z,3.10
2023-01-21T14:28:23.018Z,4.13
2023-01-21T14:31:00.536Z,5.15
2023-01-21T14:33:29.847Z,5.10
2023-01-21T14:36:15.997Z,4.22
2023-01-21T14:39:07.002Z,3.83
2023-01-21T14:42:00.658Z,3.75
2023-01-21T14:44:51.288Z,4.18
2023-01-21T14:47:40.000Z,3.40
2023-01-21T14:50:07.857Z,5.15
2023-01-21T14:52:38.388Z,4.35
2023-01-21T14:55:29.047Z,5.25
2023-01-21T14:57:56.219Z,3.75
2023-01-21T15:00:37.863Z,3.60
2023-01-21T15:03:16.480Z,3.40
2023-01-21T15:05:44.329Z,3.55
2023-01-21T15:08:13.843Z,4.68
2023-01-21T15:10:40.569Z,5.20
2023-01-21T15:13:36.901Z,5.18
2023-01-21T15:16:41.988Z,3.28
2023-01-21T15:19:09.138Z,3.90
2023-01-21T15:21:42.283Z,3.65
2023-01-21T15:24:27.787Z,3.25
2023-01-21T15:27:03.527Z,1.70
2023-01-21T15:29:34.494Z,5.18
2023-01-21T15:32:20.276Z,6.18
2023-01-21T15:34:48.346Z,4.85
2023-01-21T15:37:18.956Z,4.40
2023-01-21T15:39:45.681Z,3.13
2023-01-21T15:42:40.092Z,2.58
2023-01-21T15:45:12.727Z,2.63
2023-01-21T15:48:00.240Z,4.72
2023-01-21T15:50:38.047Z,3.35
2023-01-21T15:53:29.118Z,4.13
2023-01-21T15:56:17.479Z,2.47
2023-01-21T15:58:54.266Z,2.95
2023-01-21T16:01:33.648Z,3.10
2023-01-21T16:04:12.467Z,3.28
2023-01-21T16:07:04.239Z,4.97
2023-01-21T16:10:02.190Z,2.90
2023-01-21T16:12:42.736Z,2.38
2023-01-21T16:15:37.277Z,3.03
2023-01-21T16:18:34.633Z,3.03
2023-01-21T16:21:01.430Z,3.38
2023-01-21T16:23:29.309Z,2.58
2023-01-21T16:25:56.093Z,2.28
2023-01-21T16:28:22.778Z,2.38
2023-01-21T16:30:56.975Z,3.63
2023-01-21T16:33:23.835Z,3.65
2023-01-21T16:35:55.175Z,2.42
2023-01-21T16:38:32.088Z,4.93
2023-01-21T16:41:08.125Z,2.92
2023-01-21T16:43:35.884Z,5.57
2023-01-21T16:46:04.124Z,2.95
2023-01-21T16:48:32.096Z,2.40
2023-01-21T16:50:59.023Z,4.88
2023-01-21T16:53:25.812Z,3.28
2023-01-21T16:55:56.929Z,6.03
2023-01-21T16:58:31.307Z,2.97
2023-01-21T17:01:11.668Z,5.72
2023-01-21T17:03:38.462Z,3.42
2023-01-21T17:06:34.607Z,5.22
2023-01-21T17:09:02.992Z,3.00
2023-01-21T17:11:29.669Z,4.85
2023-01-21T17:13:56.392Z,4.90
2023-01-21T17:16:25.737Z,3.40
2023-01-21T17:19:06.570Z,5.13
2023-01-21T17:21:43.478Z,3.80
2023-01-21T17:24:34.719Z,3.72
2023-01-21T17:27:09.151Z,4.15
2023-01-21T17:29:35.906Z,5.43
2023-01-21T17:32:47.995Z,6.28
2023-01-21T17:35:17.160Z,7.93
2023-01-21T17:37:45.377Z,5.00
2023-01-21T17:40:24.906Z,5.18
2023-01-21T17:42:51.602Z,5.55
2023-01-21T17:45:37.703Z,6.40
2023-01-21T17:48:10.335Z,6.82
2023-01-21T17:50:38.655Z,7.78
2023-01-21T17:53:06.585Z,8.60
2023-01-21T17:55:37.695Z,8.13
2023-01-21T17:58:34.425Z,8.40
2023-01-21T18:01:02.105Z,7.20
2023-01-21T18:03:28.807Z,8.77
2023-01-21T18:05:55.529Z,9.23
2023-01-21T18:08:22.448Z,7.90
2023-01-21T18:10:49.170Z,12.25
2023-01-21T18:13:16.946Z,7.45
2023-01-21T18:15:43.811Z,6.78
2023-01-21T18:18:40.202Z,8.35
2023-01-21T18:21:09.629Z,7.22
2023-01-21T18:23:36.339Z,6.88
2023-01-21T18:26:03.089Z,6.88
2023-01-21T18:28:29.949Z,8.68
2023-01-21T18:30:57.480Z,6.25
2023-01-21T18:33:30.048Z,6.55
2023-01-21T18:35:56.969Z,11.50
2023-01-21T18:38:25.365Z,7.35
2023-01-21T18:40:52.090Z,9.27
2023-01-21T18:43:18.775Z,7.30
2023-01-21T18:45:45.480Z,7.78
2023-01-21T18:48:14.280Z,9.02
2023-01-21T18:50:40.995Z,6.70
2023-01-21T18:53:07.670Z,7.85
2023-01-21T18:55:34.424Z,7.82
2023-01-21T18:58:01.152Z,8.48
2023-01-21T19:00:29.626Z,9.00
2023-01-21T19:02:57.107Z,9.55
2023-01-21T19:05:27.981Z,8.88
2023-01-21T19:07:54.697Z,9.57
2023-01-21T19:10:21.682Z,9.10
2023-01-21T19:12:48.726Z,9.70
2023-01-21T19:15:20.776Z,11.30
2023-01-21T19:17:48.081Z,9.27
2023-01-21T19:20:16.396Z,10.27
2023-01-21T19:22:43.289Z,11.40
2023-01-21T19:25:10.272Z,10.18
2023-01-21T19:27:41.945Z,10.85
2023-01-21T19:30:42.372Z,14.65
2023-01-21T19:33:09.085Z,12.80
2023-01-21T19:35:37.275Z,11.32
2023-01-21T19:38:05.783Z,11.23
2023-01-21T19:40:32.477Z,11.50
2023-01-21T19:42:59.157Z,11.57
2023-01-21T19:45:27.481Z,11.20
2023-01-21T19:47:54.261Z,10.02
2023-01-21T19:50:25.461Z,8.70
2023-01-21T19:52:52.735Z,13.07
2023-01-21T19:55:25.633Z,8.55
2023-01-21T20:00:28.609Z,13.77
2023-01-21T20:02:55.301Z,7.78
2023-01-21T20:05:22.666Z,17.35
2023-01-21T20:07:49.816Z,10.20
2023-01-21T20:10:17.379Z,12.05
2023-01-21T20:12:44.359Z,9.23
2023-01-21T20:15:12.915Z,8.02
2023-01-21T20:17:41.334Z,9.52
2023-01-21T20:20:21.669Z,10.98
2023-01-21T20:22:48.424Z,9.90
2023-01-21T20:25:34.836Z,11.55
2023-01-21T20:28:01.610Z,8.93
2023-01-21T20:30:30.164Z,9.55
2023-01-21T20:32:57.254Z,8.07
2023-01-21T20:35:24.808Z,9.15
2023-01-21T20:37:51.970Z,8.10
2023-01-21T20:40:26.558Z,9.93
2023-01-21T20:42:53.834Z,7.88
2023-01-21T20:45:22.319Z,10.57
2023-01-21T20:47:51.703Z,7.05
2023-01-21T20:50:23.263Z,8.90
2023-01-21T20:52:50.199Z,6.65
2023-01-21T20:55:19.790Z,10.00
2023-01-21T20:57:47.534Z,8.70
2023-01-21T21:00:21.829Z,8.85
2023-01-21T21:02:48.593Z,9.07
2023-01-21T21:05:18.860Z,7.45
2023-01-21T21:07:45.772Z,6.25
2023-01-21T21:10:33.597Z,7.75
2023-01-21T21:13:00.349Z,7.63
2023-01-21T21:15:30.698Z,6.60
2023-01-21T21:17:57.856Z,9.13
2023-01-21T21:20:29.826Z,6.60
2023-01-21T21:22:56.541Z,7.50
2023-01-21T21:25:24.885Z,7.85
2023-01-21T21:27:52.134Z,6.93
2023-01-21T21:30:21.452Z,7.47
2023-01-21T21:32:48.180Z,7.15
2023-01-21T21:35:20.140Z,7.72
2023-01-21T21:37:46.849Z,7.07
2023-01-21T21:40:13.794Z,9.05
2023-01-21T21:42:40.541Z,7.63
2023-01-21T21:45:07.713Z,6.93
2023-01-21T21:47:34.458Z,7.05
2023-01-21T21:50:01.137Z,7.03
2023-01-21T21:52:27.841Z,7.63
2023-01-21T21:54:54.542Z,7.43
2023-01-21T21:57:21.267Z,7.57
2023-01-21T21:59:47.971Z,6.60
2023-01-21T22:02:14.697Z,6.10
2023-01-21T22:04:41.414Z,6.72
2023-01-21T22:07:08.118Z,6.93
2023-01-21T22:09:34.793Z,8.27
2023-01-21T22:12:01.478Z,7.57
2023-01-21T22:14:32.389Z,5.35
2023-01-21T22:16:59.489Z,5.25
2023-01-21T22:19:26.379Z,6.03
2023-01-21T22:21:53.084Z,5.43
2023-01-21T22:24:19.843Z,6.15
2023-01-21T22:26:46.637Z,6.50
2023-01-21T22:29:13.501Z,6.75
2023-01-21T22:31:40.290Z,6.57
2023-01-21T22:34:07.017Z,7.18
2023-01-21T22:36:33.745Z,7.78
2023-01-21T22:39:00.583Z,6.40
2023-01-21T22:41:27.393Z,6.22
2023-01-21T22:43:54.111Z,6.32
2023-01-21T22:46:22.792Z,8.32
2023-01-21T22:48:49.622Z,6.85
2023-01-21T22:51:17.146Z,9.32
2023-01-21T22:53:43.934Z,9.82
2023-01-21T22:56:11.986Z,6.15
2023-01-21T22:58:38.801Z,8.02
2023-01-21T23:01:05.781Z,7.93
2023-01-21T23:03:32.630Z,8.07
2023-01-21T23:06:05.995Z,7.00
2023-01-21T23:08:32.883Z,5.50
2023-01-21T23:11:03.489Z,5.40
2023-01-21T23:13:30.951Z,6.38
2023-01-21T23:15:57.797Z,5.18
2023-01-21T23:18:24.888Z,6.20
2023-01-21T23:20:51.581Z,7.18
2023-01-21T23:23:18.322Z,5.97
2023-01-21T23:25:45.583Z,5.35
2023-01-21T23:28:15.338Z,5.93
2023-01-21T23:30:42.184Z,6.28
2023-01-21T23:33:08.992Z,5.80
2023-01-21T23:35:35.763Z,6.10
2023-01-21T23:38:02.848Z,5.40
2023-01-21T23:40:29.595Z,6.35
2023-01-21T23:42:56.332Z,6.47
2023-01-21T23:45:23.136Z,5.32
2023-01-21T23:47:49.812Z,6.57
2023-01-21T23:50:16.978Z,5.60
2023-01-21T23:52:43.917Z,6.28
2023-01-21T23:55:10.762Z,6.85
2023-01-21T23:57:37.486Z,5.25
